Time;durP1;ratioP1;P1;durP2;ratioP2;P2;SDS_P1;SDS_P2;PMS_P1;PMS_P2;Temp;Humidity;BMP_temperature;BMP_pressure;BME280_temperature;BME280_humidity;BME280_pressure;Samples;Min_cycle;Max_cycle;Signal;HPM_P1;HPM_P2
2023/05/08 00:00:03;;;;;;;9.68;8.15;;;;;;;6.25;71.57;102016.69;7395465;19;20082;-68
2023/05/08 00:02:34;;;;;;;9.48;8.52;;;;;;;6.22;71.76;102015.75;7394350;19;20026;-68
2023/05/08 00:05:03;;;;;;;9.63;8.65;;;;;;;6.17;71.97;102010.47;7393688;19;20086;-68
2023/05/08 00:07:31;;;;;;;9.77;8.75;;;;;;;6.13;72.24;102016.47;7395985;19;20014;-68
2023/05/08 00:10:02;;;;;;;8.55;7.75;;;;;;;6.09;72.29;102014.66;7393830;19;20073;-68
2023/05/08 00:12:31;;;;;;;9.35;8.52;;;;;;;6.04;72.43;102019.81;7394082;19;20015;-69
2023/05/08 00:14:59;;;;;;;10.40;9.30;;;;;;;6.01;72.74;102023.22;7393294;19;20367;-69
2023/05/08 00:17:28;;;;;;;9.70;8.70;;;;;;;5.97;73.08;102029.19;7393012;19;20018;-68
2023/05/08 00:19:56;;;;;;;9.90;8.88;;;;;;;5.93;73.04;102016.97;7394070;19;20023;-68
2023/05/08 00:22:25;;;;;;;10.68;9.57;;;;;;;5.92;73.33;102022.16;7393187;19;20411;-67
2023/05/08 00:24:53;;;;;;;9.68;8.77;;;;;;;5.87;73.33;102025.53;7392448;19;20018;-67
2023/05/08 00:27:24;;;;;;;10.02;8.75;;;;;;;5.87;73.71;102029.88;7393114;19;20019;-67
2023/05/08 00:29:53;;;;;;;9.20;8.30;;;;;;;5.84;73.77;102024.63;7396885;19;20500;-67
2023/05/08 00:32:21;;;;;;;9.70;8.50;;;;;;;5.82;74.17;102018.50;7402830;19;20024;-67
2023/05/08 00:34:50;;;;;;;9.93;8.93;;;;;;;5.79;74.22;102018.47;7399789;19;20415;-68
2023/05/08 00:37:18;;;;;;;9.93;8.48;;;;;;;5.74;74.42;102020.09;7402616;19;20022;-68
2023/05/08 00:39:47;;;;;;;9.45;7.88;;;;;;;5.71;74.62;102021.81;7402256;19;20037;-67
2023/05/08 00:42:15;;;;;;;10.70;8.10;;;;;;;5.68;74.82;102023.47;7399406;19;20023;-67
2023/05/08 00:44:46;;;;;;;8.63;7.80;;;;;;;5.66;75.22;102026.03;7399102;19;20430;-68
2023/05/08 00:47:16;;;;;;;8.95;8.05;;;;;;;5.63;75.14;102025.97;7401621;19;20509;-68
2023/05/08 00:49:44;;;;;;;8.68;7.88;;;;;;;5.62;75.26;102026.81;7398954;19;20032;-68
2023/05/08 00:52:13;;;;;;;9.13;8.23;;;;;;;5.57;75.45;102018.03;7399524;19;20023;-69
2023/05/08 00:54:42;;;;;;;8.90;8.00;;;;;;;5.57;75.44;102028.44;7399025;19;20018;-68
2023/05/08 00:57:10;;;;;;;8.30;7.50;;;;;;;5.54;75.63;102021.47;7399457;19;20015;-68
2023/05/08 00:59:40;;;;;;;8.68;7.80;;;;;;;5.52;75.78;102017.06;7399451;19;20074;-68
2023/05/08 01:02:11;;;;;;;8.27;7.47;;;;;;;5.49;75.67;102011.81;7399173;19;20019;-68
2023/05/08 01:04:43;;;;;;;9.82;8.07;;;;;;;5.47;75.94;102018.72;7398828;19;20018;-67
2023/05/08 01:07:12;;;;;;;8.55;7.65;;;;;;;5.45;75.99;102015.22;7398773;19;20021;-68
2023/05/08 01:09:40;;;;;;;10.00;8.52;;;;;;;5.44;76.06;102023.88;7399401;19;20035;-68
2023/05/08 01:12:17;;;;;;;9.35;8.10;;;;;;;5.32;76.04;102008.88;7399461;19;20019;-68
2023/05/08 01:15:02;;;;;;;8.93;8.02;;;;;;;5.38;76.37;102017.69;7401932;19;20014;-67
2023/05/08 01:17:44;;;;;;;8.95;8.05;;;;;;;5.35;76.55;102019.34;7398920;19;20018;-68
2023/05/08 01:20:26;;;;;;;9.63;7.93;;;;;;;5.34;76.79;102025.41;7399167;19;20035;-68
2023/05/08 01:23:25;;;;;;;9.93;8.93;;;;;;;5.31;76.89;102021.00;7400752;19;20031;-68
2023/05/08 01:26:26;;;;;;;8.85;7.95;;;;;;;5.27;77.08;102021.81;7398427;19;20039;-68
2023/05/08 01:29:32;;;;;;;8.82;7.93;;;;;;;5.26;76.87;102025.25;7399857;19;20014;-68
2023/05/08 01:32:25;;;;;;;8.98;8.15;;;;;;;5.22;76.76;102019.09;7397705;19;20014;-68
2023/05/08 01:35:05;;;;;;;10.10;8.68;;;;;;;5.18;76.89;102022.47;7397807;19;20026;-68
2023/05/08 01:37:39;;;;;;;9.57;8.15;;;;;;;5.12;76.93;102011.03;7399481;19;20187;-68
2023/05/08 01:40:14;;;;;;;8.77;7.88;;;;;;;5.12;77.03;102022.34;7401173;19;20035;-68
2023/05/08 01:42:50;;;;;;;10.20;8.07;;;;;;;5.12;77.08;102026.66;7416719;19;20023;-68
2023/05/08 01:45:26;;;;;;;9.70;8.70;;;;;;;5.10;77.29;102028.38;7422555;19;20025;-69
2023/05/08 01:48:06;;;;;;;9.73;8.63;;;;;;;5.06;77.43;102023.09;7421514;19;20006;-68
2023/05/08 01:50:39;;;;;;;9.40;8.40;;;;;;;5.06;77.54;102022.22;7402825;19;20018;-68
2023/05/08 01:53:15;;;;;;;9.38;8.45;;;;;;;5.03;77.33;102028.22;7398068;19;20031;-68
2023/05/08 01:55:48;;;;;;;9.02;8.13;;;;;;;5.00;77.66;102025.53;7397139;19;20382;-68
2023/05/08 01:58:17;;;;;;;9.57;8.63;;;;;;;4.98;77.77;102028.97;7396906;19;20018;-69
2023/05/08 02:00:47;;;;;;;9.75;8.80;;;;;;;4.96;77.89;102030.66;7397292;19;20018;-68
2023/05/08 02:03:20;;;;;;;9.15;8.20;;;;;;;4.91;78.00;102027.97;7396559;19;20400;-68
2023/05/08 02:05:50;;;;;;;9.65;8.30;;;;;;;4.89;78.01;102035.72;7396611;19;20023;-68
2023/05/08 02:08:21;;;;;;;9.43;8.10;;;;;;;4.85;78.06;102031.31;7397110;19;20023;-68
2023/05/08 02:10:52;;;;;;;10.18;9.18;;;;;;;4.84;78.32;102033.84;7399213;19;20014;-68
2023/05/08 02:13:22;;;;;;;11.20;8.68;;;;;;;4.82;78.59;102035.56;7398223;19;20019;-68
2023/05/08 02:15:54;;;;;;;10.00;9.00;;;;;;;4.79;78.75;102035.47;7398548;19;20493;-68
2023/05/08 02:18:27;;;;;;;10.18;9.15;;;;;;;4.76;79.02;102033.69;7397173;19;20002;-67
2023/05/08 02:20:57;;;;;;;12.77;9.27;;;;;;;4.75;78.81;102031.06;7396824;19;20509;-68
2023/05/08 02:23:28;;;;;;;10.02;8.93;;;;;;;4.73;79.17;102031.03;7398456;19;20024;-67
2023/05/08 02:25:58;;;;;;;9.95;9.05;;;;;;;4.67;79.08;102034.34;7396566;19;20499;-67
2023/05/08 02:28:27;;;;;;;10.73;9.32;;;;;;;4.68;79.20;102038.72;7396838;19;20014;-67
2023/05/08 02:31:04;;;;;;;10.60;8.98;;;;;;;4.68;79.49;102043.91;7396131;19;20014;-68
2023/05/08 02:33:36;;;;;;;10.20;9.07;;;;;;;4.66;79.29;102040.41;7396830;19;20078;-68
2023/05/08 02:36:06;;;;;;;9.85;8.85;;;;;;;4.63;79.55;102044.66;7395980;19;20010;-67
2023/05/08 02:38:38;;;;;;;13.10;9.80;;;;;;;4.63;79.77;102048.13;7396353;19;20018;-67
2023/05/08 02:41:08;;;;;;;10.57;8.68;;;;;;;4.59;79.57;102045.41;7396767;19;20022;-67
2023/05/08 02:43:37;;;;;;;12.25;9.52;;;;;;;4.56;79.77;102039.31;7410210;19;20014;-67
2023/05/08 02:46:14;;;;;;;10.50;9.40;;;;;;;4.54;79.68;102035.78;7414755;19;20007;-67
2023/05/08 02:48:56;;;;;;;10.93;9.63;;;;;;;4.42;79.86;102017.28;7415639;19;20014;-68
2023/05/08 02:51:27;;;;;;;14.65;10.38;;;;;;;4.47;79.98;102030.41;7398188;19;20505;-69
2023/05/08 02:54:00;;;;;;;13.48;9.55;;;;;;;4.28;79.99;102008.28;7393301;19;20035;-68
2023/05/08 02:56:36;;;;;;;10.52;9.48;;;;;;;4.40;80.19;102034.59;7396974;19;20026;-68
2023/05/08 02:59:18;;;;;;;11.98;10.15;;;;;;;4.36;80.31;102033.63;7397327;19;20035;-68
2023/05/08 03:01:53;;;;;;;11.02;9.90;;;;;;;4.35;80.69;102033.59;7396234;19;20010;-68
2023/05/08 03:04:31;;;;;;;11.77;10.57;;;;;;;4.31;80.60;102034.34;7396186;19;20078;-68
2023/05/08 03:07:02;;;;;;;12.85;10.45;;;;;;;4.28;80.58;102039.47;7396111;19;20021;-68
2023/05/08 03:09:41;;;;;;;11.32;10.13;;;;;;;4.26;80.98;102036.84;7396096;19;20031;-68
2023/05/08 03:12:15;;;;;;;11.27;9.73;;;;;;;4.24;80.80;102035.91;7395696;19;20018;-68
2023/05/08 03:14:50;;;;;;;11.77;9.88;;;;;;;4.22;80.88;102034.97;7394760;19;20489;-68
2023/05/08 03:17:20;;;;;;;14.32;10.52;;;;;;;4.21;80.74;102038.44;7395162;19;20022;-68
2023/05/08 03:19:56;;;;;;;13.13;10.00;;;;;;;4.19;81.00;102033.19;7396210;19;20024;-67
2023/05/08 03:22:28;;;;;;;11.25;10.05;;;;;;;4.18;81.00;102039.25;7394454;19;20510;-67
2023/05/08 03:25:01;;;;;;;11.43;10.23;;;;;;;4.16;81.22;102038.31;7395643;19;20014;-67
2023/05/08 03:27:31;;;;;;;11.87;10.63;;;;;;;4.15;81.25;102043.47;7395662;19;20035;-67
2023/05/08 03:30:00;;;;;;;13.13;10.48;;;;;;;4.13;81.26;102050.34;7395394;19;20010;-67
2023/05/08 03:32:31;;;;;;;15.40;11.05;;;;;;;4.13;81.28;102050.34;7396752;19;20031;-67
2023/05/08 03:35:05;;;;;;;12.05;10.85;;;;;;;4.11;81.43;102047.72;7396431;19;20018;-68
2023/05/08 03:37:33;;;;;;;12.32;11.02;;;;;;;3.92;81.50;102017.78;7395588;19;20018;-67
2023/05/08 03:40:02;;;;;;;12.27;10.15;;;;;;;4.05;81.26;102048.41;7394712;19;20011;-67
2023/05/08 03:42:33;;;;;;;13.82;10.82;;;;;;;4.04;81.49;102045.78;7394690;19;20099;-70
2023/05/08 03:45:04;;;;;;;12.43;10.93;;;;;;;4.01;81.70;102046.59;7396913;19;20015;-67
2023/05/08 03:47:33;;;;;;;12.60;10.55;;;;;;;3.98;81.83;102043.94;7394987;19;20573;-67
2023/05/08 03:50:05;;;;;;;14.27;12.25;;;;;;;3.98;81.68;102045.63;7394123;19;20462;-68
2023/05/08 03:52:34;;;;;;;12.88;11.23;;;;;;;3.96;81.76;102043.00;7396832;19;20019;-66
2023/05/08 03:55:09;;;;;;;12.25;10.85;;;;;;;3.95;82.24;102050.75;7401001;19;20026;-67
2023/05/08 03:57:52;;;;;;;12.57;11.23;;;;;;;3.87;82.15;102035.84;7407719;19;20018;-68
2023/05/08 04:00:28;;;;;;;14.50;12.07;;;;;;;3.91;82.06;102040.25;7407589;19;20014;-67
2023/05/08 04:03:06;;;;;;;13.10;11.15;;;;;;;3.90;82.16;102042.81;7401362;19;20372;-68
2023/05/08 04:05:45;;;;;;;12.65;10.90;;;;;;;3.91;82.27;102042.00;7402723;19;20074;-67
2023/05/08 04:08:18;;;;;;;14.20;12.52;;;;;;;3.90;82.35;102042.81;7402959;19;20041;-68
2023/05/08 04:10:52;;;;;;;12.50;10.75;;;;;;;3.89;82.40;102047.16;7412855;19;20019;-68
2023/05/08 04:13:24;;;;;;;15.60;11.80;;;;;;;3.89;82.32;102051.44;7401700;19;20022;-68
2023/05/08 04:15:56;;;;;;;14.30;11.23;;;;;;;3.89;82.29;102049.75;7401112;19;20019;-68
2023/05/08 04:18:30;;;;;;;14.73;12.68;;;;;;;3.90;82.32;102053.22;7400321;19;20003;-68
2023/05/08 04:21:03;;;;;;;13.38;11.80;;;;;;;3.90;82.62;102051.50;7404279;19;20013;-68
2023/05/08 04:23:31;;;;;;;14.27;12.13;;;;;;;3.86;82.54;102046.19;7401037;19;20019;-68
2023/05/08 04:26:03;;;;;;;15.13;11.82;;;;;;;3.90;82.51;102055.81;7403216;19;20015;-68
2023/05/08 04:28:32;;;;;;;14.13;12.00;;;;;;;3.93;82.77;102061.09;7400929;19;20028;-67
2023/05/08 04:31:01;;;;;;;13.10;11.07;;;;;;;3.95;82.65;102056.81;7400674;19;20032;-67
2023/05/08 04:33:30;;;;;;;13.25;11.52;;;;;;;3.99;82.57;102062.97;7399999;19;20015;-67
2023/05/08 04:36:03;;;;;;;17.15;11.68;;;;;;;4.00;82.63;102065.59;7400208;19;20035;-68
2023/05/08 04:38:31;;;;;;;13.95;10.85;;;;;;;4.04;82.99;102064.88;7400966;19;20018;-69
2023/05/08 04:40:59;;;;;;;12.90;11.52;;;;;;;4.06;82.97;102067.50;7400560;19;20078;-68
2023/05/08 04:43:28;;;;;;;13.25;11.85;;;;;;;4.08;82.72;102071.88;7400316;19;20022;-68
2023/05/08 04:45:56;;;;;;;12.40;11.10;;;;;;;4.11;82.84;102067.59;7400087;19;20032;-68
2023/05/08 04:48:25;;;;;;;13.23;11.23;;;;;;;4.17;83.00;102075.56;7399759;19;20023;-68
2023/05/08 04:50:53;;;;;;;15.07;13.40;;;;;;;4.21;82.78;102072.22;7402740;19;20018;-68
2023/05/08 04:53:24;;;;;;;12.02;10.82;;;;;;;4.26;82.82;102078.41;7400545;19;20023;-67
2023/05/08 04:55:54;;;;;;;13.32;11.57;;;;;;;4.31;82.80;102079.41;7400716;19;20477;-68
2023/05/08 04:58:22;;;;;;;11.77;10.48;;;;;;;4.36;82.64;102080.41;7399688;19;20090;-68
2023/05/08 05:00:51;;;;;;;16.10;10.95;;;;;;;4.40;82.91;102086.56;7399557;19;20031;-68
2023/05/08 05:03:19;;;;;;;12.45;10.60;;;;;;;4.46;82.82;102088.41;7400699;19;20019;-68
2023/05/08 05:05:48;;;;;;;12.25;10.40;;;;;;;4.52;82.56;102091.16;7398955;19;20097;-68
2023/05/08 05:08:16;;;;;;;10.98;9.60;;;;;;;4.60;83.00;102086.16;7399805;19;20015;-67
2023/05/08 05:10:47;;;;;;;12.27;10.48;;;;;;;4.67;82.75;102088.94;7399296;19;20019;-68
2023/05/08 05:13:16;;;;;;;10.68;9.57;;;;;;;4.72;82.55;102089.94;7399139;19;20400;-67
2023/05/08 05:15:45;;;;;;;18.42;10.63;;;;;;;4.66;82.38;102065.50;7396333;19;20026;-69
2023/05/08 05:18:13;;;;;;;11.38;9.82;;;;;;;4.89;82.00;102105.94;7399422;19;20022;-68
2023/05/08 05:20:42;;;;;;;13.43;9.70;;;;;;;4.98;81.97;102102.69;7404117;19;20481;-67
2023/05/08 05:23:10;;;;;;;10.55;8.95;;;;;;;5.05;81.96;102106.31;7401475;19;20022;-68
2023/05/08 05:25:39;;;;;;;29.23;17.80;;;;;;;5.14;81.87;102105.63;7400729;19;20334;-68
2023/05/08 05:28:10;;;;;;;16.17;12.02;;;;;;;5.22;81.64;102104.97;7397645;19;20013;-69
2023/05/08 05:30:38;;;;;;;34.50;21.92;;;;;;;5.29;81.24;102105.97;7404507;19;20019;-68
2023/05/08 05:33:07;;;;;;;13.35;10.75;;;;;;;5.38;81.11;102102.69;7401643;19;20014;-68
2023/05/08 05:35:35;;;;;;;10.05;8.93;;;;;;;5.39;80.97;102094.91;7400876;19;20017;-68
2023/05/08 05:38:04;;;;;;;11.73;8.73;;;;;;;5.54;80.81;102109.09;7399483;19;20041;-66
2023/05/08 05:40:33;;;;;;;9.43;7.70;;;;;;;5.50;80.52;102091.69;7403853;19;20026;-67
2023/05/08 05:43:01;;;;;;;11.23;8.80;;;;;;;5.68;80.49;102118.06;7402936;19;20019;-66
2023/05/08 05:45:32;;;;;;;10.55;8.73;;;;;;;5.75;79.96;102102.56;7403048;19;20010;-67
2023/05/08 05:48:01;;;;;;;8.88;7.97;;;;;;;5.84;79.77;102110.59;7402478;19;20432;-67
2023/05/08 05:50:30;;;;;;;9.75;7.65;;;;;;;5.92;79.50;102115.94;7404280;19;20018;-66
2023/05/08 05:52:58;;;;;;;9.73;7.35;;;;;;;5.99;79.39;102110.00;7402946;19;20023;-68
2023/05/08 05:55:27;;;;;;;10.32;7.68;;;;;;;6.05;79.26;102110.13;7400687;19;20019;-69
2023/05/08 05:57:55;;;;;;;8.45;7.60;;;;;;;6.12;78.88;102117.22;7403598;19;20010;-69
2023/05/08 06:00:24;;;;;;;8.38;7.50;;;;;;;6.16;78.71;102110.34;7404900;19;20015;-67
2023/05/08 06:02:56;;;;;;;7.63;6.93;;;;;;;6.28;78.53;102120.09;7403902;19;20038;-68
2023/05/08 06:05:24;;;;;;;8.18;7.35;;;;;;;6.33;78.17;102119.34;7403210;19;20504;-67
2023/05/08 06:07:53;;;;;;;9.13;7.28;;;;;;;6.42;77.92;102118.66;7401738;19;20018;-67
2023/05/08 06:10:21;;;;;;;8.27;6.47;;;;;;;6.50;77.39;102119.63;7403103;19;20018;-66
2023/05/08 06:12:50;;;;;;;8.13;6.40;;;;;;;6.59;77.09;102118.06;7401050;19;20055;-67
2023/05/08 06:15:19;;;;;;;6.95;5.50;;;;;;;6.66;76.71;102117.28;7400774;19;20022;-66
2023/05/08 06:17:47;;;;;;;8.02;5.47;;;;;;;6.75;76.61;102119.16;7404016;19;20035;-68
2023/05/08 06:20:18;;;;;;;8.02;5.50;;;;;;;6.85;75.49;102118.50;7397202;19;20034;-67
2023/05/08 06:22:47;;;;;;;10.15;5.25;;;;;;;6.94;75.21;102118.63;7400514;19;20022;-65
2023/05/08 06:25:16;;;;;;;5.78;5.13;;;;;;;7.08;75.15;102129.25;7404013;19;20024;-65
2023/05/08 06:27:45;;;;;;;7.50;4.88;;;;;;;7.22;74.48;102119.03;7402995;19;20032;-65
2023/05/08 06:30:14;;;;;;;5.55;5.03;;;;;;;7.36;74.09;102121.81;7404640;19;20018;-66
2023/05/08 06:32:42;;;;;;;4.45;4.00;;;;;;;7.48;73.21;102115.88;7404028;19;20368;-65
2023/05/08 06:35:12;;;;;;;5.13;3.97;;;;;;;7.61;71.62;102119.56;7404333;19;20027;-65
2023/05/08 06:38:05;;;;;;;10.85;4.18;;;;;;;7.75;71.91;102119.72;7404616;19;20011;-66
2023/05/08 06:40:33;;;;;;;5.32;3.80;;;;;;;7.87;71.17;102125.06;7406222;19;20019;-65
2023/05/08 06:43:02;;;;;;;5.80;3.80;;;;;;;7.96;70.98;102119.06;7402744;19;20039;-66
2023/05/08 06:45:30;;;;;;;4.60;3.60;;;;;;;8.06;70.81;102126.19;7401949;19;20015;-66
2023/05/08 06:47:59;;;;;;;4.00;3.50;;;;;;;8.14;70.36;102118.41;7400314;19;20035;-68
2023/05/08 06:50:27;;;;;;;4.70;3.90;;;;;;;8.19;69.29;102111.50;7397245;19;20026;-67
2023/05/08 06:52:55;;;;;;;3.63;3.25;;;;;;;8.25;68.98;102116.78;7397570;19;20500;-67
2023/05/08 06:55:27;;;;;;;4.45;3.80;;;;;;;8.32;68.20;102122.94;7399199;19;20032;-69
2023/05/08 06:57:55;;;;;;;4.40;3.38;;;;;;;8.38;67.72;102116.88;7399952;19;20023;-66
2023/05/08 07:00:24;;;;;;;4.53;3.00;;;;;;;8.42;66.80;102108.22;7396999;19;20022;-68
2023/05/08 07:02:53;;;;;;;4.07;3.22;;;;;;;8.32;67.02;102092.44;7396524;19;20074;-68
2023/05/08 07:05:22;;;;;;;3.10;2.80;;;;;;;8.57;67.02;102115.38;7396655;19;20019;-68
2023/05/08 07:07:52;;;;;;;3.50;3.17;;;;;;;8.64;66.26;102107.59;7395575;19;20512;-71
2023/05/08 07:10:21;;;;;;;3.20;2.90;;;;;;;8.72;65.69;102122.44;7395920;19;20482;-68
2023/05/08 07:12:53;;;;;;;5.82;2.60;;;;;;;8.80;65.42;102116.41;7396606;19;20505;-68
2023/05/08 07:15:21;;;;;;;3.72;2.72;;;;;;;8.90;65.18;102109.50;7394870;19;20351;-67
2023/05/08 07:17:50;;;;;;;4.28;2.58;;;;;;;8.97;64.63;102107.78;7394712;19;20039;-69
2023/05/08 07:20:31;;;;;;;4.07;2.60;;;;;;;9.06;64.47;102104.38;7396913;19;20010;-68
2023/05/08 07:22:59;;;;;;;2.92;2.63;;;;;;;9.15;64.20;102107.06;7397869;19;20022;-69
2023/05/08 07:25:28;;;;;;;3.85;2.17;;;;;;;9.24;62.83;102101.00;7403623;19;20021;-68
2023/05/08 07:27:59;;;;;;;2.90;2.05;;;;;;;9.32;60.52;102096.66;7412698;19;20014;-68
2023/05/08 07:30:28;;;;;;;2.97;2.08;;;;;;;9.42;58.24;102105.47;7415684;19;20019;-68
2023/05/08 07:32:56;;;;;;;2.53;1.95;;;;;;;9.51;60.78;102108.09;7407535;19;20030;-69
2023/05/08 07:35:25;;;;;;;2.22;1.92;;;;;;;9.61;58.01;102098.56;7394227;19;20006;-69
2023/05/08 07:37:53;;;;;;;2.70;2.30;;;;;;;9.71;59.58;102097.72;7393770;19;20038;-69
2023/05/08 07:40:22;;;;;;;4.53;1.92;;;;;;;9.86;58.08;102101.28;7393679;19;20011;-68
2023/05/08 07:42:50;;;;;;;2.38;1.73;;;;;;;9.95;57.30;102094.28;7399377;19;20037;-69
2023/05/08 07:45:22;;;;;;;4.00;1.73;;;;;;;10.04;57.42;102105.69;7399000;19;20095;-68
2023/05/08 07:47:51;;;;;;;2.97;1.70;;;;;;;10.10;56.72;102096.06;7397844;19;20028;-68
2023/05/08 07:50:21;;;;;;;5.82;2.10;;;;;;;10.20;56.54;102109.22;7394662;19;20031;-67
2023/05/08 07:52:50;;;;;;;3.15;1.90;;;;;;;10.27;56.12;102109.22;7393922;19;20018;-68
2023/05/08 07:55:19;;;;;;;2.13;1.92;;;;;;;10.36;55.54;102099.63;7394079;19;20090;-67
2023/05/08 07:57:47;;;;;;;4.60;2.60;;;;;;;10.38;54.94;102090.03;7393959;19;20478;-68
2023/05/08 08:00:17;;;;;;;2.15;1.83;;;;;;;10.52;54.94;102104.00;7393422;19;20481;-70
2023/05/08 08:02:48;;;;;;;2.33;1.70;;;;;;;10.58;53.23;102104.00;7395642;19;20538;-70
2023/05/08 08:05:17;;;;;;;3.20;2.17;;;;;;;10.64;54.40;102102.25;7395315;19;20019;-69
2023/05/08 08:07:45;;;;;;;2.90;2.13;;;;;;;10.73;53.74;102102.28;7396063;19;20086;-68
2023/05/08 08:10:14;;;;;;;2.28;2.08;;;;;;;10.77;53.10;102098.78;7394669;19;20087;-68
2023/05/08 08:12:42;;;;;;;3.10;1.90;;;;;;;10.86;52.69;102092.63;7394372;19;20019;-69
2023/05/08 08:15:11;;;;;;;3.45;2.08;;;;;;;10.92;52.86;102098.75;7394185;19;20010;-69
2023/05/08 08:17:40;;;;;;;3.35;2.47;;;;;;;11.01;52.52;102097.84;7393878;19;20011;-67
2023/05/08 08:20:12;;;;;;;2.65;2.00;;;;;;;11.08;52.63;102083.84;7393994;19;20051;-70
2023/05/08 08:22:40;;;;;;;3.15;1.77;;;;;;;11.17;52.66;102088.19;7394739;19;20015;-69
2023/05/08 08:25:11;;;;;;;3.22;2.13;;;;;;;11.25;51.90;102088.19;7396638;19;20481;-70
2023/05/08 08:27:39;;;;;;;2.20;2.00;;;;;;;11.31;51.05;102088.16;7394337;19;20078;-68
2023/05/08 08:30:09;;;;;;;3.33;1.60;;;;;;;11.39;51.78;102091.63;7396681;19;20039;-68
2023/05/08 08:32:38;;;;;;;2.90;1.65;;;;;;;11.47;51.28;102085.47;7393738;19;20007;-68
2023/05/08 08:35:07;;;;;;;4.40;1.92;;;;;;;11.53;51.22;102083.69;7393370;19;20506;-70
2023/05/08 08:37:38;;;;;;;3.85;2.13;;;;;;;11.58;50.42;102084.53;7396675;19;20014;-71
2023/05/08 08:40:08;;;;;;;5.07;2.40;;;;;;;11.64;50.53;102080.13;7393162;19;20123;-68
2023/05/08 08:42:37;;;;;;;3.65;2.10;;;;;;;11.67;50.69;102083.63;7394127;19;20015;-68
2023/05/08 08:45:07;;;;;;;3.28;1.88;;;;;;;11.70;51.04;102083.63;7393438;19;20389;-70
2023/05/08 08:47:40;;;;;;;2.85;1.83;;;;;;;11.80;50.87;102075.66;7393160;19;20015;-68
2023/05/08 08:50:11;;;;;;;2.90;1.88;;;;;;;11.88;50.09;102074.75;7395064;19;20343;-71
2023/05/08 08:52:48;;;;;;;4.38;2.20;;;;;;;11.98;49.05;102077.34;7400997;19;20042;-70
2023/05/08 08:55:18;;;;;;;2.85;2.00;;;;;;;12.04;49.41;102074.69;7399541;19;20362;-68
2023/05/08 08:57:55;;;;;;;2.55;1.90;;;;;;;12.10;48.60;102077.28;7399966;19;20014;-68
2023/05/08 09:00:25;;;;;;;3.17;2.08;;;;;;;12.15;48.40;102064.94;7402629;19;20011;-69
2023/05/08 09:02:54;;;;;;;3.75;2.08;;;;;;;12.21;48.39;102074.56;7398511;19;20018;-69
2023/05/08 09:05:25;;;;;;;5.05;2.53;;;;;;;12.27;48.60;102071.00;7399541;19;20011;-68
2023/05/08 09:07:57;;;;;;;5.65;2.85;;;;;;;12.25;48.25;102060.50;7400960;19;20011;-70
2023/05/08 09:10:26;;;;;;;3.95;2.42;;;;;;;12.36;46.79;102071.81;7401656;19;20018;-70
2023/05/08 09:12:54;;;;;;;4.28;2.13;;;;;;;12.42;48.32;102062.13;7399741;19;20032;-69
2023/05/08 09:15:23;;;;;;;4.80;2.55;;;;;;;12.49;48.41;102071.72;7398548;19;20018;-69
2023/05/08 09:17:52;;;;;;;3.92;1.95;;;;;;;12.55;48.12;102074.31;7398241;19;20010;-69
2023/05/08 09:20:21;;;;;;;3.45;2.30;;;;;;;12.62;47.98;102072.47;7399332;19;20506;-70
2023/05/08 09:22:50;;;;;;;6.25;2.35;;;;;;;12.68;48.19;102062.75;7398160;19;20363;-68
2023/05/08 09:25:22;;;;;;;5.03;2.42;;;;;;;12.77;48.37;102066.22;7402345;19;20022;-70
2023/05/08 09:27:50;;;;;;;3.25;1.80;;;;;;;12.84;47.82;102074.03;7399418;19;20497;-70
2023/05/08 09:30:19;;;;;;;4.35;2.08;;;;;;;12.91;47.78;102064.28;7398875;19;20011;-69
2023/05/08 09:32:48;;;;;;;6.30;2.65;;;;;;;12.98;47.83;102059.84;7398129;19;20482;-68
2023/05/08 09:35:17;;;;;;;3.65;2.15;;;;;;;13.04;47.65;102070.28;7400957;19;20017;-70
2023/05/08 09:37:46;;;;;;;2.92;2.03;;;;;;;13.08;47.23;102068.50;7398679;19;20011;-69
2023/05/08 09:40:20;;;;;;;4.93;2.90;;;;;;;13.12;46.85;102064.97;7402088;19;20015;-69
2023/05/08 09:42:52;;;;;;;3.47;2.38;;;;;;;13.17;46.17;102064.00;7400344;19;20038;-70
2023/05/08 09:45:38;;;;;;;3.40;2.10;;;;;;;13.21;45.58;102059.59;7397590;19;20412;-67
2023/05/08 09:48:08;;;;;;;3.40;2.30;;;;;;;13.28;46.27;102050.72;7400125;19;20011;-70
2023/05/08 09:50:36;;;;;;;3.22;2.22;;;;;;;13.35;46.47;102064.69;7398061;19;20363;-70
2023/05/08 09:53:05;;;;;;;2.53;1.90;;;;;;;13.44;46.11;102054.06;7397362;19;20019;-70
2023/05/08 09:55:48;;;;;;;4.10;2.08;;;;;;;13.54;45.33;102062.72;7400269;19;20023;-68
2023/05/08 09:58:21;;;;;;;3.57;2.13;;;;;;;13.62;45.77;102058.22;7399928;19;20014;-69
2023/05/08 10:00:49;;;;;;;4.38;2.72;;;;;;;13.70;45.75;102052.84;7399482;19;20030;-71
2023/05/08 10:03:18;;;;;;;3.97;1.90;;;;;;;13.79;44.40;102057.13;7397764;19;20026;-69
2023/05/08 10:05:47;;;;;;;4.10;2.05;;;;;;;13.87;44.21;102062.28;7397780;19;20025;-70
2023/05/08 10:08:24;;;;;;;3.05;1.63;;;;;;;13.95;43.39;102066.56;7397080;19;20014;-70
2023/05/08 10:10:53;;;;;;;2.78;1.90;;;;;;;14.05;43.83;102058.50;7396967;19;20019;-68
2023/05/08 10:13:24;;;;;;;3.90;2.22;;;;;;;14.15;43.23;102066.25;7397692;19;20074;-70
2023/05/08 10:15:57;;;;;;;3.25;2.17;;;;;;;14.22;42.43;102055.59;7399299;19;20023;-71
2023/05/08 10:18:31;;;;;;;5.95;2.33;;;;;;;14.31;42.78;102058.09;7396375;19;20039;-70
2023/05/08 10:21:08;;;;;;;2.92;2.22;;;;;;;14.38;41.26;102048.28;7397998;19;20019;-69
2023/05/08 10:23:39;;;;;;;3.70;2.28;;;;;;;14.43;41.65;102049.09;7397130;19;20015;-68
2023/05/08 10:26:13;;;;;;;4.18;2.50;;;;;;;14.49;40.17;102063.06;7396753;19;20388;-68
2023/05/08 10:28:46;;;;;;;;;;;;;;;14.57;37.51;102054.13;7396999;19;20038;-69
2023/05/08 10:31:16;;;;;;;1.67;1.42;;;;;;;14.66;39.83;102052.22;7395787;19;20315;-68
2023/05/08 10:33:47;;;;;;;2.95;1.52;;;;;;;14.74;39.16;102054.72;7395816;19;20031;-68
2023/05/08 10:36:16;;;;;;;3.83;1.45;;;;;;;14.81;38.66;102043.16;7396537;19;20010;-70
2023/05/08 10:38:45;;;;;;;2.63;1.52;;;;;;;14.90;38.16;102035.94;7395844;19;20388;-69
2023/05/08 10:41:15;;;;;;;2.38;1.60;;;;;;;14.98;38.28;102039.31;7401953;19;20031;-68
2023/05/08 10:43:46;;;;;;;4.72;2.33;;;;;;;15.02;37.97;102030.41;7400926;19;20038;-69
2023/05/08 10:46:22;;;;;;;2.85;2.30;;;;;;;15.09;38.56;102033.81;7405721;19;20018;-69
2023/05/08 10:48:59;;;;;;;4.20;2.00;;;;;;;15.11;37.17;102026.72;7401414;19;20027;-68
2023/05/08 10:51:40;;;;;;;2.35;2.15;;;;;;;15.14;37.15;102027.53;7399402;19;20478;-69
2023/05/08 10:54:12;;;;;;;3.15;1.70;;;;;;;15.21;37.99;102027.41;7397744;19;20038;-68
2023/05/08 10:56:41;;;;;;;2.85;1.98;;;;;;;15.27;37.98;102033.44;7400345;19;20018;-69
2023/05/08 10:59:20;;;;;;;3.22;2.10;;;;;;;15.31;36.23;102021.03;7400461;19;20015;-69
2023/05/08 11:01:50;;;;;;;2.45;1.73;;;;;;;15.41;37.37;102014.63;7399997;19;20014;-69
2023/05/08 11:04:23;;;;;;;3.20;2.10;;;;;;;15.48;35.97;102013.59;7396368;19;20034;-70
2023/05/08 11:06:52;;;;;;;2.78;1.63;;;;;;;15.59;37.51;102023.94;7395825;19;20018;-70
2023/05/08 11:09:23;;;;;;;3.28;1.90;;;;;;;15.68;36.46;102017.56;7395993;19;20014;-68
2023/05/08 11:12:05;;;;;;;4.15;1.83;;;;;;;15.73;34.68;102009.53;7397772;19;20370;-71
2023/05/08 11:14:38;;;;;;;4.68;1.98;;;;;;;15.84;36.12;102011.97;7395395;19;20103;-71
2023/05/08 11:17:08;;;;;;;3.75;1.98;;;;;;;15.99;36.57;102022.19;7401409;19;20015;-69
2023/05/08 11:19:37;;;;;;;5.40;1.92;;;;;;;16.08;36.21;102011.34;7396493;19;20010;-68
2023/05/08 11:22:25;;;;;;;3.75;1.80;;;;;;;16.19;35.82;102012.88;7395465;19;20039;-69
2023/05/08 11:25:05;;;;;;;5.55;1.73;;;;;;;16.31;35.67;102009.91;7395448;19;20057;-70
2023/05/08 11:27:43;;;;;;;5.97;2.33;;;;;;;16.42;35.21;102012.28;7398798;19;20031;-66
2023/05/08 11:30:25;;;;;;;4.28;1.83;;;;;;;16.52;34.87;102013.78;7397599;19;20015;-70
2023/05/08 11:33:13;;;;;;;5.07;2.03;;;;;;;16.60;34.74;102008.28;7397153;19;20039;-69
2023/05/08 11:35:49;;;;;;;3.58;1.80;;;;;;;16.70;35.58;102001.81;7395120;19;20018;-68
2023/05/08 11:38:29;;;;;;;4.50;1.85;;;;;;;16.81;35.48;101996.22;7394013;19;20485;-70
2023/05/08 11:41:03;;;;;;;3.40;2.00;;;;;;;16.93;34.95;101998.56;7394308;19;20018;-69
2023/05/08 11:44:13;;;;;;;2.28;1.70;;;;;;;17.05;34.12;101994.69;7397058;19;20018;-69
2023/05/08 11:46:49;;;;;;;4.53;2.30;;;;;;;17.20;34.67;101992.50;7398099;19;20172;-69